Date,TemperatureHighF,TemperatureAvgF,TemperatureLowF,DewpointHighF,DewpointAvgF,DewpointLowF,HumidityHigh,HumidityAvg,HumidityLow,PressureMaxIn,PressureMinIn,WindSpeedMaxMPH,WindSpeedAvgMPH,GustSpeedMaxMPH,PrecipitationSumIn
2013-1-1,49.8,47.8,44.8,49.8,42.8,30.5,100,85,51,30.08,29.89,5,0,5,0.50
2013-1-2,53.5,49.7,46.8,49.4,46.7,43.4,100,90,71,30.08,29.84,4,0,4,0.08
2013-1-3,46.7,42.7,33.1,45.9,41.7,29.1,100,97,85,30.26,30.03,0,0,0,0.00
2013-1-4,52.2,38.6,28.7,31.8,26.6,20.9,91,65,35,30.32,30.19,10,0,10,0.00
2013-1-5,33.7,33.4,32.8,23.1,22.6,21.9,67,64,62,30.30,30.29,0,0,0,0.00
2013-1-8,49.1,48.6,48.3,40.4,39.4,38.5,74,70,68,30.34,30.30,0,0,0,0.02
2013-1-9,65.6,55.5,47.7,53.0,47.2,39.5,87,74,60,30.40,30.31,4,0,4,0.00
2013-1-10,70.4,58.8,48.3,57.4,52.1,48.0,100,81,53,30.41,30.24,10,0,10,0.01
2013-1-11,57.6,53.6,51.4,57.3,53.6,51.4,100,100,98,30.24,30.10,0,0,0,0.21
2013-1-12,70.8,59.6,52.0,65.0,57.6,52.0,100,94,69,30.11,30.02,9,0,9,0.01
2013-1-13,71.1,62.6,57.3,62.1,59.8,57.0,100,91,71,30.08,29.98,10,0,10,0.00
2013-1-14,68.8,64.2,60.9,65.8,62.5,59.9,100,94,83,30.06,29.97,10,0,10,0.16
2013-1-15,62.6,55.4,46.1,62.3,55.4,46.1,100,100,97,30.06,29.97,0,0,0,0.08
2013-1-16,51.9,48.4,44.6,51.9,48.4,44.6,100,100,100,29.99,29.90,4,0,4,0.24
2013-1-17,53.1,48.7,37.6,53.1,48.6,37.3,100,100,97,30.16,29.66,0,0,0,2.11
2013-1-18,52.5,40.6,32.4,37.3,27.4,18.3,100,63,28,30.46,30.16,10,0,10,0.00
2013-1-19,54.4,40.3,28.2,30.1,27.0,21.0,92,63,28,30.44,30.15,8,0,9,0.00
2013-1-20,64.3,48.0,36.5,37.4,31.0,27.1,75,54,33,30.15,29.98,12,2,12,0.00
2013-1-21,62.3,44.3,30.0,34.9,26.4,16.4,92,55,26,30.05,29.92,21,4,21,0.00
2013-1-22,48.3,38.0,28.5,19.0,14.8,8.8,67,40,21,30.22,30.00,16,3,16,0.00
2013-1-23,52.3,38.3,24.7,29.1,20.7,11.1,73,50,36,30.31,30.07,13,1,13,0.00
2013-1-24,57.8,45.4,29.0,36.2,22.5,4.2,71,44,15,30.42,29.98,9,2,13,0.00
2013-1-25,33.4,28.0,25.3,28.0,15.6,6.2,84,61,38,30.46,30.08,0,0,1,0.00
2013-1-26,56.3,39.0,26.7,36.7,30.3,24.7,98,74,34,30.28,30.07,5,0,5,0.03
2013-1-27,47.9,38.4,29.5,32.2,29.8,27.4,93,72,50,30.51,30.28,9,0,9,0.00
2013-1-28,50.4,44.4,40.6,44.4,36.7,29.8,100,75,61,30.41,30.23,5,0,5,0.00
2013-1-29,69.9,56.4,41.9,60.0,51.8,41.9,100,86,63,30.23,29.93,10,0,10,0.00
2013-1-30,70.4,62.7,47.9,64.0,58.2,44.5,100,86,74,29.93,29.41,20,4,20,1.22
2013-1-31,50.5,42.8,36.0,44.6,25.1,17.5,88,51,28,30.06,29.57,23,4,23,0.00
2013-2-1,47.0,38.8,26.9,27.8,14.0,-1.0,64,39,15,30.32,29.96,16,5,16,0.00
2013-2-2,45.4,33.9,23.0,38.3,19.1,5.7,97,58,20,30.35,30.02,15,2,15,0.09
2013-2-3,54.5,41.7,32.4,38.0,30.4,23.6,97,67,33,30.02,29.85,22,3,22,0.01
2013-2-4,47.6,37.9,27.5,29.9,25.5,21.9,83,63,37,30.11,29.97,6,1,6,0.00
2013-2-5,61.8,47.3,34.7,46.1,37.5,28.8,93,70,50,29.97,29.87,17,2,17,0.00
2013-2-6,69.9,50.7,37.8,44.0,34.4,20.4,100,62,16,30.12,29.95,9,1,9,0.00
2013-2-7,47.6,44.3,41.9,41.9,35.1,25.7,99,73,45,30.16,29.92,0,0,0,0.39
2013-2-8,61.0,47.5,37.8,48.0,40.1,27.1,100,77,52,30.08,29.86,14,2,14,0.00
2013-2-9,61.2,44.5,29.0,30.6,24.9,17.5,85,52,20,30.27,30.06,10,1,10,0.00
2013-2-10,57.5,46.6,38.0,47.0,34.9,24.0,100,66,34,30.37,30.10,12,1,12,0.52
2013-2-11,55.3,51.4,46.8,55.3,51.0,46.8,100,99,93,30.12,29.94,6,1,6,0.18
2013-2-12,58.6,49.7,43.2,50.6,41.5,27.9,100,78,32,30.05,29.84,5,1,5,0.17
2013-2-13,51.0,44.7,36.2,46.7,42.5,34.4,100,92,75,29.86,29.65,15,3,15,0.07
2013-2-14,52.0,39.5,30.1,38.1,33.2,29.9,100,81,48,30.04,29.85,10,4,10,0.00
2013-2-15,62.3,45.9,30.6,39.7,32.8,28.7,100,67,30,30.07,29.90,14,2,14,0.00
2013-2-16,44.6,37.3,28.2,36.2,28.3,15.6,93,71,45,30.03,29.78,14,4,14,0.02
2013-2-17,48.0,34.1,24.7,17.6,10.4,3.7,62,40,17,30.23,30.03,17,5,17,0.00
2013-2-18,55.7,40.1,25.0,27.6,20.9,13.5,81,49,26,30.34,30.16,11,2,11,0.00
2013-2-19,53.1,43.1,35.3,43.8,32.0,15.5,99,69,28,30.17,29.88,16,2,16,0.22
2013-2-20,56.7,41.7,26.3,23.1,17.6,10.9,78,42,18,30.09,30.00,9,2,9,0.00
2013-2-21,60.4,45.0,30.6,36.5,19.9,11.4,63,38,20,30.18,30.01,6,0,6,0.00
2013-2-22,49.2,39.9,38.3,39.7,38.1,30.3,100,94,50,30.19,30.06,0,0,0,0.41
2013-2-23,45.4,41.5,38.5,44.6,41.4,38.5,100,99,96,30.09,29.81,0,0,0,0.29
2013-2-24,67.1,50.7,41.9,47.4,39.8,30.2,100,73,29,29.94,29.82,8,0,8,0.00
2013-2-25,47.4,43.1,35.9,34.1,28.8,25.6,93,58,47,30.08,29.92,13,2,13,0.03
2013-2-26,42.3,37.4,32.9,42.3,36.9,32.1,100,98,83,29.97,29.56,22,3,22,0.97
2013-2-27,56.5,46.3,39.2,37.5,34.6,32.7,82,65,43,29.79,29.66,22,3,22,0.00
2013-2-28,51.3,42.3,31.8,35.2,28.1,23.3,76,58,39,29.88,29.70,19,4,19,0.00
2013-3-1,53.8,39.5,27.3,31.6,27.4,23.0,88,64,38,29.92,29.81,13,1,13,0.00
2013-3-2,45.2,39.7,32.9,35.3,31.8,23.8,90,74,55,29.91,29.81,15,0,15,0.01
2013-3-3,47.9,35.2,24.4,24.1,19.5,14.8,85,56,28,30.00,29.86,12,1,12,0.00
2013-3-4,53.6,37.6,22.2,28.9,18.6,13.7,80,51,22,30.14,29.99,10,0,10,0.00
2013-3-5,61.0,47.9,38.0,54.5,39.8,27.5,99,75,49,30.02,29.58,30,2,30,0.41
2013-3-6,50.4,39.8,31.6,28.9,24.8,19.7,76,56,38,30.08,29.68,21,5,21,0.00
2013-3-7,58.4,40.7,26.3,32.5,27.7,23.4,91,63,33,30.22,30.08,7,0,8,0.00
2013-3-8,63.9,44.4,28.5,29.6,23.3,16.9,82,49,18,30.29,30.14,7,0,7,0.00
2013-3-9,64.2,47.4,32.7,34.3,27.1,22.3,73,47,25,30.31,30.17,7,0,7,0.00
2013-3-10,67.1,52.6,39.6,39.3,34.8,29.8,83,53,30,30.24,30.08,12,1,12,0.00
2013-3-11,66.6,54.4,44.5,56.0,47.1,37.5,100,78,57,30.10,29.76,18,3,18,0.60
2013-3-12,68.3,57.5,47.3,57.2,46.0,21.6,100,72,24,29.97,29.67,10,2,11,0.16
2013-3-13,58.0,46.0,35.8,32.8,25.7,18.9,81,48,23,30.13,29.97,21,4,21,0.00
2013-3-14,53.2,40.0,26.4,24.4,19.6,14.5,77,47,25,30.28,30.12,11,1,11,0.00
2013-3-15,71.5,51.2,30.0,41.6,30.7,17.3,77,48,29,30.17,29.88,18,2,18,0.00
2013-3-16,77.2,65.3,54.8,47.5,42.1,37.4,63,44,27,29.88,29.72,21,4,21,0.00
2013-3-17,74.2,64.3,54.5,51.8,46.6,39.0,72,53,38,29.95,29.81,17,2,17,0.00
2013-3-18,56.0,44.1,41.5,45.2,41.3,39.5,100,91,67,30.03,29.81,16,2,16,0.42
2013-3-19,68.8,53.5,42.8,50.2,34.3,18.6,100,60,18,29.99,29.82,16,3,16,0.01
2013-3-20,58.3,47.7,37.9,30.5,19.8,13.3,65,35,19,30.07,29.78,18,1,18,0.00
2013-3-21,53.6,41.7,31.8,30.3,12.5,1.8,60,32,17,29.92,29.77,19,4,19,0.00
2013-3-22,48.8,38.4,27.2,29.9,20.3,12.7,79,50,28,30.06,29.92,9,1,9,0.00
2013-3-23,50.4,44.8,39.9,46.8,40.5,28.5,99,86,62,29.99,29.82,6,0,6,0.23
2013-3-24,46.1,44.2,42.2,44.6,42.4,39.7,100,94,80,29.84,29.51,14,3,14,1.08
2013-3-25,45.2,40.6,34.4,42.6,25.6,20.0,99,56,38,29.93,29.53,24,7,26,0.00
2013-3-26,51.4,39.0,29.0,25.8,22.9,19.4,78,54,32,30.17,29.91,13,2,13,0.00
2013-3-27,55.7,40.2,26.0,28.0,23.2,18.3,87,55,25,30.26,30.12,11,1,11,0.00
2013-3-28,61.8,44.1,28.1,26.7,23.0,17.2,82,49,18,30.29,30.12,12,1,12,0.00
2013-3-29,59.5,46.7,30.4,39.7,27.5,19.7,78,50,24,30.31,30.15,9,1,9,0.00
2013-3-30,69.3,55.5,43.5,48.6,41.0,36.9,87,61,32,30.16,29.97,12,1,12,0.02
2013-3-31,69.6,58.5,51.3,57.3,53.8,48.4,100,86,53,29.99,29.78,18,2,18,0.61
2013-4-1,76.0,62.5,54.1,58.0,46.7,34.3,100,64,25,29.91,29.76,15,2,16,0.03
2013-4-2,71.3,57.0,42.8,39.2,32.1,16.6,77,42,18,30.08,29.91,13,2,13,0.00
2013-4-3,59.8,54.6,49.2,31.8,23.9,16.0,41,31,23,30.19,30.03,15,1,15,0.00
2013-4-10,84.5,72.2,59.8,61.4,57.6,55.0,91,63,39,30.05,29.86,10,0,10,0.00
2013-4-11,79.9,68.3,58.4,67.5,61.0,55.1,99,79,52,29.90,29.63,11,1,11,0.48
2013-4-12,76.5,67.6,57.5,68.1,54.6,38.6,100,68,30,29.77,29.58,15,3,15,1.03
2013-4-13,78.3,61.3,44.5,45.5,40.3,34.3,89,51,21,29.94,29.77,4,4,4,0.00
2013-4-14,68.3,59.3,50.7,55.0,46.8,38.3,92,65,40,30.02,29.88,6,2,6,0.02
2013-4-15,72.0,62.3,55.7,60.5,57.7,53.7,100,86,60,30.12,29.88,5,0,5,0.22
2013-4-16,81.1,67.1,57.6,63.2,58.8,56.1,98,77,46,30.22,30.09,5,0,5,0.00
2013-4-17,82.6,67.8,59.8,64.7,61.3,57.6,100,82,49,30.16,30.03,8,1,8,0.39
2013-4-18,79.0,68.1,59.0,63.6,60.8,56.7,100,80,48,30.07,29.88,8,1,8,0.01
2013-4-19,72.1,62.6,49.1,65.6,59.1,45.1,99,89,75,29.88,29.70,12,3,12,0.49
2013-4-20,65.5,51.5,39.3,45.2,36.9,27.6,98,63,28,30.20,29.87,6,2,6,0.00
2013-4-21,67.9,54.1,41.3,42.0,37.4,32.0,81,56,32,30.34,30.20,12,0,12,0.00
2013-4-22,65.5,53.9,45.1,41.8,38.7,34.4,81,58,35,30.34,30.14,13,0,13,0.00
2013-4-23,73.5,57.0,43.3,50.8,42.9,34.7,83,61,37,30.20,30.03,12,0,12,0.00
2013-4-24,69.1,56.7,51.4,57.2,51.9,49.3,99,85,63,30.07,30.03,11,0,11,0.00
2013-4-25,76.5,65.9,52.8,46.7,42.2,32.1,69,44,25,30.20,30.09,7,0,7,0.00
2013-4-26,74.0,59.2,44.9,49.8,37.6,30.0,73,48,27,30.35,30.20,11,0,11,0.00
2013-4-27,59.5,56.3,52.2,57.3,53.4,46.8,100,91,66,30.30,30.16,3,0,3,0.21
2013-4-28,55.9,53.4,51.6,55.9,53.4,51.4,100,100,100,30.19,29.99,0,0,0,1.73
2013-4-29,72.5,60.5,53.6,62.9,57.3,53.6,100,90,61,30.00,29.86,6,0,6,0.09
2013-4-30,74.6,63.7,53.6,62.9,58.6,53.6,100,85,58,30.08,29.90,6,0,6,0.00
2013-5-1,66.3,61.5,55.4,59.0,55.1,52.3,95,80,65,30.17,30.07,12,0,12,0.00
2013-5-2,60.7,58.9,57.0,57.9,56.5,54.7,96,92,85,30.20,30.13,7,0,7,0.00
2013-5-3,63.2,58.8,56.6,57.3,54.8,51.1,98,87,70,30.13,29.98,11,0,11,0.01
2013-5-4,58.9,54.2,51.7,53.9,49.4,42.4,100,85,66,29.99,29.85,11,2,11,0.79
2013-5-5,55.3,52.9,51.0,55.3,52.9,51.0,100,100,100,29.87,29.75,8,2,8,1.67
2013-5-6,63.7,55.0,48.2,54.7,49.6,44.5,100,84,54,29.86,29.73,10,1,10,0.01
2013-5-7,71.8,56.4,45.8,55.4,49.4,44.8,100,81,40,29.89,29.80,6,0,6,0.03
2013-5-8,76.1,61.4,49.6,59.5,54.5,49.6,100,81,46,29.96,29.86,10,1,10,0.00
2013-5-9,82.2,67.0,53.9,59.3,56.1,51.9,100,72,37,30.02,29.93,6,0,6,0.00
2013-5-10,79.9,68.8,56.9,62.8,59.7,55.3,100,75,50,30.00,29.88,11,0,11,0.00
2013-5-11,75.6,68.4,62.7,65.6,61.5,58.6,100,79,62,29.90,29.76,10,0,10,0.13
2013-5-12,74.7,63.1,52.6,62.7,49.4,35.3,100,68,27,29.99,29.79,12,0,12,0.00
2013-5-13,70.6,56.9,43.2,42.4,36.7,30.6,85,51,25,30.14,29.98,7,0,7,0.00
2013-5-14,73.0,53.3,42.8,45.5,39.6,35.9,85,63,33,30.21,30.11,6,0,6,0.00
2013-5-15,87.6,81.1,72.1,60.2,57.6,53.8,59,45,36,29.95,29.88,12,0,12,0.00
2013-5-16,81.8,71.7,62.3,62.7,59.3,56.3,83,66,44,29.97,29.88,10,0,10,0.00
2013-5-17,82.8,71.2,59.3,63.8,59.7,55.9,92,69,46,30.02,29.93,6,0,6,0.00
2013-5-18,75.4,68.6,64.3,67.8,63.8,59.7,100,85,61,30.05,29.95,5,0,5,0.32
2013-5-19,73.5,68.7,65.3,67.8,66.1,64.3,100,92,76,30.04,29.94,5,0,5,0.32
2013-5-20,82.6,71.3,63.4,69.6,66.3,63.4,100,86,59,30.03,29.93,4,0,4,0.00
2013-5-21,88.4,74.9,66.3,71.4,67.4,64.3,100,80,50,29.96,29.85,4,0,4,0.00
2013-5-22,83.2,71.5,63.7,69.9,65.3,61.6,100,82,60,29.92,29.78,9,0,9,0.46
2013-5-23,82.6,71.0,63.4,68.1,62.9,53.5,100,79,48,29.88,29.76,10,0,10,0.19
2013-5-24,79.4,68.0,56.7,56.5,51.3,40.5,89,59,27,30.04,29.83,14,0,14,0.00
2013-5-26,71.5,64.0,59.8,55.6,54.6,53.1,80,72,55,30.14,30.10,0,0,0,0.00
2013-5-27,82.6,68.2,54.7,62.3,56.8,51.4,92,70,42,30.19,30.05,4,0,4,0.00
2013-5-28,82.0,71.2,61.0,65.8,61.9,57.2,96,74,47,30.16,30.06,4,0,4,0.00
2013-5-29,82.8,71.4,60.4,64.2,61.6,58.5,99,73,46,30.17,30.08,4,0,4,0.00
2013-5-30,83.2,71.6,62.3,66.2,63.0,60.0,98,76,48,30.20,30.07,5,0,5,0.00
2013-5-31,83.6,73.6,64.2,68.3,65.2,62.4,99,77,52,30.16,30.01,4,0,4,0.00
2013-6-1,83.6,74.3,65.8,67.8,65.3,63.2,94,75,53,30.06,29.93,6,0,6,0.00
2013-6-2,75.8,70.5,65.3,72.4,67.2,64.4,100,90,72,29.96,29.83,3,0,3,2.00
2013-6-3,82.8,71.7,64.5,72.0,68.0,64.5,100,89,59,29.86,29.76,5,0,5,0.00
2013-6-4,84.9,73.9,65.3,70.7,67.8,64.6,100,83,53,29.96,29.84,7,0,7,0.00
2013-6-5,83.4,71.5,66.8,71.9,68.2,65.9,100,90,66,30.00,29.88,7,0,7,0.40
2013-6-6,74.6,68.6,64.2,72.0,67.8,64.2,100,98,85,29.92,29.71,3,0,3,0.98
2013-6-7,84.0,70.6,66.6,72.0,68.5,65.5,100,94,63,29.76,29.59,7,0,7,0.41
2013-6-8,82.2,72.7,67.4,70.9,67.9,65.2,100,86,58,30.00,29.74,4,0,4,0.00
2013-6-9,82.0,71.3,66.8,73.6,69.6,66.8,100,95,68,30.06,29.96,3,0,3,1.84
2013-6-10,74.6,70.6,65.8,73.2,69.0,64.0,100,95,83,29.97,29.85,10,0,10,0.42
2013-6-11,88.4,77.0,68.4,73.3,70.0,66.1,100,81,50,29.93,29.84,10,0,10,0.06
2013-6-12,91.0,77.9,66.8,75.7,70.0,65.6,100,79,54,29.95,29.84,5,0,5,0.00
2013-6-20,77.6,71.2,68.4,66.2,65.4,64.6,88,82,68,30.13,30.08,0,0,1,0.84
2013-6-21,84.0,72.5,63.9,67.5,64.3,61.9,96,77,50,30.19,30.08,5,0,5,0.00
2013-6-22,85.5,73.1,63.5,67.4,63.6,60.2,94,75,44,30.15,30.03,5,0,5,0.00
2013-6-23,85.7,78.5,69.8,73.0,69.7,65.1,96,75,56,30.12,30.02,5,0,5,0.00
2013-6-24,86.5,76.9,69.4,74.4,70.7,67.6,100,83,58,30.14,30.02,5,0,5,0.07
2013-6-25,87.2,77.6,69.9,72.5,70.4,68.1,100,80,56,30.07,29.94,7,0,7,0.00
2013-6-26,87.2,76.2,70.4,74.5,71.3,69.6,100,86,60,29.97,29.85,4,0,10,0.02
2013-6-27,88.6,79.7,73.7,73.8,72.9,71.1,98,81,58,29.87,29.65,13,0,13,0.00
2013-6-28,92.9,79.2,70.8,74.0,70.7,63.6,94,77,38,29.71,29.52,5,0,6,0.03
2013-6-29,87.8,76.5,69.4,71.8,69.1,63.3,100,80,47,29.63,29.54,6,0,6,0.00
2013-6-30,82.4,73.6,69.1,73.0,69.1,65.1,100,86,61,29.75,29.61,3,0,3,0.00
2013-7-1,80.5,71.8,68.6,72.0,68.8,67.4,100,91,67,29.82,29.72,4,0,4,0.22
2013-7-2,80.3,76.3,71.3,73.9,71.5,69.6,100,85,72,30.04,29.94,0,0,0,0.26
2013-7-3,80.5,72.5,68.3,73.0,70.8,68.3,100,95,73,30.13,30.02,6,0,6,0.86
2013-7-4,77.4,70.5,66.9,76.8,70.3,66.9,100,99,90,30.13,30.04,5,0,5,1.90
2013-7-5,84.3,72.5,67.8,75.3,70.8,67.4,100,95,68,30.16,30.07,3,0,3,0.65
2013-7-6,82.8,74.8,71.5,75.7,72.5,69.2,100,93,64,30.14,30.02,1,0,1,0.26
2013-7-7,82.8,75.8,72.1,75.2,72.5,70.1,100,90,66,30.09,30.00,5,0,5,0.06
2013-7-8,85.9,76.1,71.1,75.8,72.6,70.2,100,90,63,30.12,30.01,3,0,3,0.86
2013-7-9,87.8,76.0,70.1,76.6,72.6,70.1,100,90,65,30.10,29.97,5,0,5,0.51
2013-7-10,84.3,74.2,68.9,76.2,71.9,68.9,100,93,70,30.05,29.88,3,0,3,0.01
2013-7-11,81.4,75.8,72.7,74.7,73.4,71.9,100,93,75,29.89,29.79,5,0,5,0.00
2013-7-12,84.0,72.5,65.3,74.9,69.9,62.9,100,92,69,29.90,29.78,0,0,0,0.14
2013-7-13,73.0,68.7,66.3,71.2,68.4,66.3,100,99,94,30.01,29.90,1,0,1,0.03
2013-7-14,78.1,73.4,70.4,74.0,72.3,69.8,100,97,83,30.18,30.00,0,0,0,0.41
2013-7-15,84.3,74.1,69.9,76.3,71.9,69.9,100,94,64,30.24,30.15,5,0,7,0.18
2013-7-16,88.6,77.1,69.9,76.3,72.4,69.9,100,87,57,30.24,30.14,1,0,1,0.00
2013-7-17,90.5,77.2,68.8,78.3,73.0,66.6,100,88,57,30.18,30.03,1,0,1,0.42
2013-7-18,86.7,76.0,67.6,76.1,72.0,67.6,100,89,58,30.12,29.98,1,0,1,0.00
2013-7-19,88.6,78.6,71.3,76.2,73.3,71.2,100,85,60,30.04,29.90,1,0,6,0.00
2013-7-20,84.7,76.5,72.7,75.4,73.1,70.4,100,90,69,29.96,29.86,6,0,6,0.23
2013-7-21,88.2,76.5,70.4,76.6,72.4,69.4,100,88,62,29.94,29.83,5,0,5,0.91
2013-7-22,85.1,76.1,70.4,74.2,71.8,70.4,100,88,64,29.92,29.78,9,0,9,0.63
2013-7-23,87.4,76.9,69.3,73.7,71.0,67.1,100,83,59,29.82,29.71,7,0,11,0.01
2013-7-24,87.8,76.6,70.4,76.8,71.7,68.6,100,86,61,29.75,29.68,3,0,3,0.00
2013-7-25,84.0,74.3,68.1,73.9,69.4,61.8,100,86,62,29.93,29.74,1,0,1,0.00
2013-7-26,84.7,74.7,67.1,73.1,69.7,65.7,100,85,59,30.01,29.91,0,0,0,0.00
2013-7-27,80.3,74.8,71.3,74.4,71.9,69.3,100,91,75,29.93,29.81,0,0,0,0.99
2013-7-28,86.1,75.4,68.8,71.9,70.1,67.5,100,85,55,29.93,29.83,0,0,0,0.00
2013-7-29,85.5,74.9,68.6,71.5,68.9,64.2,100,84,51,30.07,29.92,2,0,3,0.00
2013-7-30,84.5,74.1,65.2,73.9,68.7,62.8,96,84,63,30.13,30.04,4,0,4,0.00
2013-7-31,79.4,74.8,72.0,74.5,71.5,67.3,100,90,71,30.07,29.90,2,0,2,0.02
2013-8-1,87.0,76.4,71.6,74.9,71.9,68.6,99,87,60,29.92,29.80,0,0,0,0.00
2013-8-2,87.6,76.4,68.9,74.0,70.9,68.6,100,85,57,29.94,29.83,0,0,0,0.00
2013-8-3,86.1,77.9,71.5,74.4,71.3,65.9,100,82,55,29.94,29.87,7,0,9,0.00
2013-8-4,89.5,76.1,68.3,76.8,70.5,65.3,98,85,54,29.94,29.84,1,0,1,0.12
2013-8-5,78.8,71.9,68.1,75.0,68.3,64.7,98,89,73,30.00,29.90,0,0,1,0.15
2013-8-6,80.7,74.2,69.8,77.6,71.9,67.6,100,93,81,29.98,29.88,0,0,0,1.27
2013-8-7,76.3,73.3,71.1,76.1,73.0,71.1,100,99,95,29.99,29.93,0,0,0,0.85
2013-8-8,84.7,76.0,71.5,76.8,73.0,68.9,100,91,69,30.00,29.92,2,0,2,0.00
2013-8-9,85.5,76.6,73.0,77.4,74.7,71.1,100,94,70,30.00,29.93,1,0,1,0.17
2013-8-10,90.1,78.8,72.8,76.2,73.9,70.9,100,86,59,30.03,29.96,2,0,2,0.00
2013-8-11,89.5,77.2,71.1,76.8,73.2,70.5,100,89,57,30.06,29.97,6,0,7,0.31
2013-8-12,90.3,77.4,72.0,77.5,73.9,72.0,100,90,59,30.00,29.88,1,0,1,0.14
2013-8-13,86.3,77.6,72.0,76.0,73.1,71.4,100,87,65,29.90,29.75,9,0,9,0.00
2013-8-14,79.4,73.3,68.6,73.1,68.8,64.1,99,86,66,29.98,29.78,1,0,1,0.00
2013-8-15,72.8,67.4,64.3,64.4,61.3,57.2,94,81,64,30.05,29.96,13,0,13,0.00
2013-8-16,69.6,64.2,61.0,66.3,62.0,59.3,100,93,79,30.09,30.00,6,0,6,0.55
2013-8-17,66.9,63.7,60.9,65.2,62.5,59.6,100,96,86,30.11,30.05,6,0,6,0.33
2013-8-18,75.8,68.3,64.3,71.1,67.5,64.3,100,97,81,30.15,30.06,0,0,0,0.20
2013-8-19,76.1,70.6,68.3,71.2,69.1,67.0,100,95,77,30.12,30.00,5,0,5,0.99
2013-8-20,78.5,72.3,68.8,72.7,70.4,68.5,100,94,77,30.12,30.03,0,0,0,0.01
2013-8-21,78.1,73.0,70.4,75.2,72.2,70.4,100,97,83,30.16,30.05,0,0,0,1.12
2013-8-22,87.2,75.1,69.3,74.6,71.7,69.3,100,90,60,30.09,29.96,1,0,1,0.01
2013-8-23,87.6,75.0,69.4,76.0,71.4,68.2,100,90,58,29.99,29.88,3,0,3,0.31
2013-8-24,69.9,66.9,63.7,69.9,66.7,62.8,100,99,97,30.13,29.97,1,1,1,0.00
2013-9-1,85.9,77.6,72.5,75.9,72.3,69.2,98,84,66,29.83,29.75,1,0,1,0.01
2013-9-2,85.1,76.6,70.8,74.3,72.4,70.8,100,88,66,29.84,29.74,0,0,0,0.00
2013-9-3,86.5,75.6,66.4,74.5,71.0,65.3,100,87,62,29.90,29.75,6,0,6,0.13
2013-9-4,85.5,75.0,67.3,72.6,68.8,65.1,96,82,58,30.01,29.87,4,0,4,0.00
2013-9-5,87.8,74.9,67.6,73.8,70.0,66.7,100,86,51,30.05,29.97,3,0,3,0.00
2013-9-6,83.6,72.0,64.0,67.9,63.8,60.7,93,77,51,30.11,29.99,7,0,7,0.00
2013-9-7,84.3,71.7,63.2,68.7,65.0,62.0,97,81,51,30.07,29.92,5,0,5,0.00
2013-9-8,84.0,72.2,64.5,75.1,68.9,64.2,100,90,59,29.93,29.86,3,0,3,0.15
2013-9-9,85.9,74.4,67.4,73.5,69.6,66.6,100,87,56,30.06,29.91,5,0,5,0.00
2013-9-10,85.9,74.4,66.9,72.9,69.3,66.6,100,86,57,30.17,30.05,1,0,1,0.00
2013-9-11,88.4,75.0,66.6,72.6,68.5,64.9,100,82,48,30.15,30.01,4,0,4,0.00
2013-9-12,88.4,73.9,67.3,74.2,69.2,65.6,97,86,56,30.02,29.79,7,0,7,0.03
2013-9-13,85.1,73.5,64.5,72.1,64.7,54.4,100,77,38,29.82,29.70,6,0,6,0.00
2013-9-14,79.0,66.4,57.2,63.4,56.3,51.1,90,71,50,30.03,29.82,7,0,7,0.00
2013-9-15,80.7,68.3,59.8,69.2,62.7,57.0,92,83,63,30.14,30.02,7,0,7,0.00
2013-9-16,86.1,72.9,64.5,69.1,65.5,61.1,98,80,45,30.07,29.97,6,0,6,0.00
2013-9-17,73.9,68.7,64.7,63.2,59.7,57.3,81,73,63,30.22,30.05,7,0,7,0.00
2013-9-18,75.3,66.4,61.2,63.0,58.5,54.0,92,76,56,30.22,30.09,4,0,5,0.00
2013-9-19,82.4,69.0,59.8,67.1,62.3,58.7,99,81,54,30.12,30.00,3,0,3,0.00
2013-9-20,85.9,72.2,63.2,68.1,64.4,62.0,97,79,46,30.01,29.85,6,0,6,0.00
2013-9-21,73.9,68.8,64.8,71.2,67.2,63.5,100,95,84,29.85,29.57,1,0,1,0.99
2013-9-22,79.8,66.1,58.6,65.0,61.7,57.6,100,87,51,29.82,29.66,7,0,7,0.00
2013-9-23,76.0,65.3,60.2,63.6,59.6,56.1,96,82,56,29.98,29.82,4,0,4,0.00
2013-9-24,73.9,64.9,57.3,64.6,60.7,56.2,99,87,66,30.01,29.86,3,0,3,0.15
2013-9-25,65.0,62.6,60.9,64.0,62.3,60.7,100,99,91,29.88,29.80,6,0,6,0.95
2013-9-26,76.0,64.5,58.7,64.9,61.1,57.8,100,90,62,29.97,29.81,7,0,7,0.01
2013-9-27,76.8,63.7,55.1,61.4,57.4,53.7,96,82,52,30.10,29.96,7,0,7,0.00
2013-9-28,73.2,62.5,55.9,59.0,56.1,54.1,96,81,57,30.19,30.07,10,0,10,0.00
2013-9-29,73.5,61.6,53.5,59.4,55.9,52.1,97,82,57,30.12,29.97,5,0,5,0.00
2013-9-30,76.5,64.5,56.7,61.6,58.0,55.2,99,81,50,30.04,29.93,3,0,3,0.00
2013-10-1,80.3,65.8,56.2,62.5,58.5,55.4,100,80,44,30.09,29.98,4,0,4,0.00
2013-10-2,82.0,66.4,60.5,67.2,61.1,58.3,94,85,52,30.10,29.98,5,0,5,0.00
2013-10-3,82.6,68.8,59.8,68.1,62.5,59.0,100,82,49,30.07,29.99,3,0,3,0.00
2013-10-4,84.9,69.6,59.6,68.6,62.9,58.8,100,82,49,30.09,30.00,5,0,5,0.00
2013-10-5,85.7,70.3,60.7,68.7,63.7,59.8,100,82,49,30.07,29.95,4,0,4,0.00
2013-10-6,80.7,69.7,61.6,68.7,64.4,60.7,100,85,56,29.97,29.78,3,0,3,0.00
2013-10-7,74.4,68.5,60.4,70.6,65.3,53.5,100,90,72,29.91,29.73,5,0,5,0.95
2013-10-8,68.4,62.1,58.1,56.4,52.3,46.9,85,71,56,30.11,29.90,14,0,14,0.00
2013-10-9,74.4,60.9,53.8,54.8,47.7,42.5,85,63,36,30.16,30.04,14,0,14,0.00
2013-10-10,78.5,61.7,48.8,61.0,53.2,46.9,99,76,44,30.08,29.92,6,0,6,0.00
2013-10-11,80.9,66.0,55.7,62.8,56.9,53.9,95,74,46,29.96,29.85,2,0,5,0.00
2013-10-12,79.0,65.4,55.6,63.5,58.7,53.9,97,81,50,30.01,29.90,4,0,4,0.00
2013-10-13,76.0,67.6,63.9,64.7,62.5,60.8,95,84,65,30.13,30.01,7,0,7,0.00
2013-10-14,69.3,65.3,62.6,62.5,61.1,59.4,94,87,76,30.15,30.06,7,0,7,0.00
2013-10-15,68.8,62.4,58.1,60.8,58.1,56.0,96,86,69,30.12,29.99,6,0,6,0.00
2013-10-16,71.5,62.2,54.4,60.1,57.1,53.6,100,85,56,30.02,29.90,2,0,2,0.00
2013-10-17,66.3,62.7,60.5,63.9,60.8,58.7,98,93,86,29.91,29.83,0,0,0,0.15
2013-10-20,67.6,59.0,50.5,52.4,49.1,46.1,89,71,50,30.02,29.95,3,0,3,0.00
2013-10-21,68.1,55.6,45.8,57.0,50.9,44.4,97,85,61,30.10,29.96,5,0,5,0.00
2013-10-22,66.3,60.3,56.6,58.2,55.9,50.0,97,86,58,29.97,29.75,6,0,6,0.00
2013-10-23,65.0,54.1,40.6,56.4,42.4,29.6,97,69,31,30.01,29.70,13,0,13,0.00
2013-10-24,62.9,47.5,35.0,45.6,37.8,32.6,95,72,41,30.15,30.01,7,0,7,0.00
2013-10-25,56.9,44.6,36.9,40.6,33.1,24.1,93,68,29,30.33,30.11,10,0,10,0.00
2013-10-26,57.6,43.9,31.3,39.7,33.3,28.2,89,69,41,30.33,30.06,14,0,14,0.00
2013-10-27,70.3,55.0,40.9,53.1,45.0,34.9,90,70,49,30.09,30.00,5,0,5,0.00
2013-10-28,66.4,59.0,55.0,58.6,54.2,52.2,96,85,65,30.20,30.05,4,0,4,0.01
2013-10-29,73.5,58.5,47.6,57.8,52.8,47.1,100,83,50,30.28,30.18,5,0,5,0.00
2013-10-30,77.2,62.9,54.5,59.2,55.9,53.1,97,80,50,30.24,30.09,9,0,9,0.00
2013-10-31,72.5,63.7,55.3,63.9,58.1,53.6,96,83,66,30.11,29.82,5,0,5,0.00
2013-11-1,68.6,64.5,58.6,63.9,60.9,58.1,99,88,73,29.83,29.62,7,0,7,0.17
2013-11-2,68.3,56.2,48.0,58.1,46.2,38.7,99,72,38,29.95,29.68,11,0,11,0.00
2013-11-3,65.0,49.7,40.5,43.4,39.4,32.8,94,71,33,30.29,29.94,5,0,5,0.00
2013-11-4,60.1,48.2,40.9,40.4,36.8,33.1,85,66,38,30.46,30.26,6,0,6,0.00
2013-11-5,60.9,48.5,39.3,47.6,39.8,30.6,89,73,53,30.48,30.34,10,0,10,0.00
2013-11-6,70.8,58.2,52.0,57.2,51.8,46.1,92,80,57,30.36,30.07,6,0,6,0.00
2013-11-7,76.0,57.7,44.5,60.4,48.0,32.3,98,74,26,30.09,29.89,7,0,7,0.02
2013-11-8,59.9,45.6,36.6,35.8,31.2,24.3,82,60,29,30.27,30.09,2,0,4,0.00
2013-11-9,57.5,46.1,35.5,40.5,32.6,27.9,80,61,34,30.33,30.17,4,0,4,0.00
2013-11-10,74.0,54.6,43.5,42.6,37.8,30.8,82,57,25,30.19,30.07,4,0,4,0.00
2013-11-11,61.3,48.6,40.2,38.6,32.7,26.1,79,57,28,30.30,30.11,4,0,5,0.00
2013-11-12,70.4,47.1,29.7,40.0,32.0,15.7,84,58,31,30.40,29.99,14,0,14,0.00
2013-11-13,37.6,29.2,23.8,23.2,17.7,14.5,71,62,47,30.48,30.40,1,1,1,0.00
2013-11-14,56.7,39.4,26.1,28.1,21.4,15.9,83,53,20,30.45,30.28,3,0,4,0.00
2013-11-15,58.4,47.3,34.9,48.2,37.1,22.9,98,70,30,30.30,30.13,3,0,3,0.06
2013-11-16,62.6,55.4,48.5,55.4,52.2,48.0,100,90,75,30.22,30.11,4,0,4,0.01
2013-11-17,65.6,59.9,55.7,65.6,58.1,53.0,100,94,83,30.13,29.85,3,0,3,0.29
2013-11-18,76.1,62.1,47.6,64.8,50.0,29.8,100,71,24,29.93,29.79,9,1,9,0.01
2013-11-19,58.4,47.0,37.3,37.4,30.0,23.5,85,55,28,30.19,29.92,10,0,10,0.00
2013-11-20,53.6,45.7,38.0,34.4,30.2,27.5,71,55,39,30.36,30.17,5,0,13,0.00
2013-11-21,52.3,48.0,45.2,49.1,40.5,32.9,100,76,58,30.40,30.31,7,0,7,0.17
2013-11-22,60.1,54.8,49.1,57.0,53.7,49.1,100,96,87,30.34,30.07,0,0,4,0.00
2013-11-23,61.3,55.2,39.6,58.0,47.9,24.5,100,78,49,30.14,30.00,8,0,8,0.00
2013-11-24,44.8,35.6,27.9,26.8,14.9,6.7,67,44,24,30.49,30.14,9,0,12,0.00
2013-11-25,41.6,34.1,25.7,16.6,11.1,6.0,62,40,25,30.53,30.26,7,0,7,0.00
2013-11-26,46.0,38.6,32.4,46.0,35.8,15.6,100,91,38,30.26,29.59,0,0,0,1.99
2013-11-27,48.3,39.8,25.8,46.5,33.7,19.0,100,81,43,30.20,29.49,19,2,19,0.25
2013-11-28,45.4,31.7,21.1,27.0,21.8,17.6,91,69,37,30.44,30.19,5,2,5,0.01
2013-11-29,55.4,38.7,26.1,31.1,25.8,18.7,92,65,26,30.51,30.41,6,0,6,0.00
2013-11-30,48.0,38.2,31.2,29.5,24.8,21.4,77,60,35,30.58,30.32,5,1,11,0.00
2013-12-1,55.1,42.5,32.5,42.6,33.2,25.0,92,71,47,30.32,29.97,5,0,5,0.00
2013-12-2,58.3,46.0,34.6,47.6,40.7,33.4,99,84,48,29.97,29.76,6,0,6,0.00
2013-12-3,55.9,52.3,49.2,54.4,51.5,47.6,100,97,86,29.89,29.80,4,0,4,0.30
2013-12-4,62.0,56.7,53.8,62.0,56.7,53.8,100,100,100,30.00,29.87,0,0,0,0.18
2013-12-5,68.1,64.2,60.2,67.6,63.9,60.2,100,99,95,30.03,29.94,0,0,0,0.02
2013-12-6,76.7,68.9,65.5,66.4,64.0,61.6,97,85,60,29.99,29.89,10,2,16,0.07
2013-12-7,65.2,57.4,49.1,62.9,53.4,42.7,100,87,67,30.31,29.93,9,3,9,0.20
2013-12-8,48.9,40.8,36.2,42.7,39.0,35.5,99,93,77,30.33,30.21,7,3,7,0.12
2013-12-9,45.8,41.0,36.2,45.8,41.0,36.0,100,100,99,30.23,29.99,3,3,3,0.48
2013-12-10,59.6,47.4,30.9,53.2,39.8,24.9,100,78,37,30.28,29.86,17,3,17,0.11
2013-12-11,51.6,37.0,26.4,31.9,24.9,18.7,91,66,33,30.42,30.26,7,0,7,0.00
2013-12-12,51.0,38.6,27.6,27.5,22.8,18.4,82,56,29,30.37,30.27,5,0,5,0.00
2013-12-13,52.8,38.4,25.6,33.9,23.6,13.0,78,57,31,30.34,30.19,9,0,9,0.00
2013-12-14,42.1,41.4,41.1,34.8,32.1,30.4,76,69,65,30.20,30.14,0,0,0,0.00
2013-12-18,54.2,46.1,31.8,25.0,17.4,11.4,67,33,19,30.25,30.19,7,0,7,0.00
2013-12-19,62.3,44.2,29.4,31.4,25.5,19.1,83,52,21,30.30,30.17,5,0,7,0.00
2013-12-20,56.9,47.6,38.2,46.6,40.0,30.1,89,75,65,30.20,30.10,1,0,1,0.00
2013-12-21,68.8,57.4,47.4,62.0,53.8,44.5,95,88,76,30.10,29.92,0,0,0,0.00
2013-12-22,68.6,63.7,58.6,64.7,61.7,58.6,100,93,81,29.99,29.89,12,1,15,1.48
2013-12-23,59.0,54.9,46.5,59.0,52.6,39.5,100,92,75,30.12,29.92,7,1,7,0.64
2013-12-24,51.6,40.9,28.5,40.9,29.9,17.2,97,68,27,30.38,30.10,12,1,12,0.00
2013-12-25,41.2,32.1,23.5,23.9,16.3,10.1,74,54,29,30.51,30.34,6,0,6,0.00
2013-12-26,54.5,39.3,28.5,30.8,24.9,18.9,81,58,31,30.34,30.19,6,0,6,0.00
2013-12-27,51.9,38.7,30.9,27.2,24.1,19.0,76,58,30,30.43,30.29,5,0,5,0.00
2013-12-28,49.9,38.0,27.9,39.2,30.7,24.0,96,77,41,30.37,30.02,4,0,4,0.46
2013-12-29,59.5,46.7,39.6,49.9,43.4,38.8,100,89,68,30.02,29.76,9,1,12,0.99
2013-12-30,53.3,44.8,35.9,42.8,39.4,35.1,99,82,62,30.08,29.91,9,2,9,0.00
2013-12-31,51.4,42.4,34.3,37.8,32.1,24.7,93,69,36,30.32,30.07,6,2,6,0.00
2014-1-1,48.5,39.6,31.9,36.7,30.2,23.9,84,70,49,30.34,30.09,4,0,4,0.00
2014-1-2,46.2,42.2,29.0,45.9,38.1,14.7,99,86,53,30.10,29.63,0,0,0,0.22